Time;durP1;ratioP1;P1;durP2;ratioP2;P2;SDS_P1;SDS_P2;PMS_P1;PMS_P2;Temp;Humidity;BMP_temperature;BMP_pressure;BME280_temperature;BME280_humidity;BME280_pressure;Samples;Min_cycle;Max_cycle;Signal;HPM_P1;HPM_P2
2022/03/18 00:01:56;;;;;;;7.23;6.63;;;;;;;2.98;64.33;96460.16;4971831;28;20209;-66
2022/03/18 00:04:21;;;;;;;7.20;6.60;;;;;;;2.91;64.35;96470.88;4969168;28;20244;-67
2022/03/18 00:06:47;;;;;;;7.93;7.23;;;;;;;2.95;63.90;96462.88;4937647;28;20228;-67
2022/03/18 00:09:12;;;;;;;8.60;7.90;;;;;;;2.87;63.54;96458.03;4933670;28;20236;-67
2022/03/18 00:11:38;;;;;;;7.70;7.10;;;;;;;2.94;64.07;96463.81;4930139;29;20241;-67
2022/03/18 00:14:03;;;;;;;7.93;7.20;;;;;;;3.03;63.33;96473.78;4935557;28;20212;-68
2022/03/18 00:16:29;;;;;;;8.03;7.30;;;;;;;2.88;64.00;96472.69;4936058;28;20252;-68
2022/03/18 00:18:55;;;;;;;8.67;7.77;;;;;;;2.90;63.80;96466.63;4936059;28;20228;-68
2022/03/18 00:21:21;;;;;;;7.63;7.03;;;;;;;2.96;63.74;96477.56;4930982;29;20229;-67
2022/03/18 00:23:47;;;;;;;8.47;7.67;;;;;;;2.96;63.83;96480.16;4947355;28;20291;-68
2022/03/18 00:26:13;;;;;;;7.77;6.97;;;;;;;2.94;63.62;96478.53;4933050;28;20240;-68
2022/03/18 00:28:39;;;;;;;7.00;6.40;;;;;;;2.99;63.63;96487.81;4932572;28;20327;-67
2022/03/18 00:31:08;;;;;;;7.97;7.27;;;;;;;2.97;63.12;96484.47;4931293;28;20236;-68
2022/03/18 00:33:34;;;;;;;9.17;8.27;;;;;;;2.93;63.52;96480.28;4947990;28;20247;-68
2022/03/18 00:36:00;;;;;;;8.70;8.00;;;;;;;2.95;62.73;96483.69;4935934;29;20229;-68
2022/03/18 00:38:26;;;;;;;9.50;8.50;;;;;;;2.74;62.99;96488.06;4944495;28;20237;-68
2022/03/18 00:40:54;;;;;;;9.30;8.40;;;;;;;2.76;63.07;96488.84;4912529;29;20205;-67
2022/03/18 00:43:20;;;;;;;9.00;8.20;;;;;;;2.90;62.91;96495.19;4912135;29;20264;-68
2022/03/18 00:45:45;;;;;;;9.53;8.63;;;;;;;2.87;62.82;96489.22;4925717;29;20229;-68
2022/03/18 00:53:39;;;;;;;9.77;8.87;;;;;;;2.78;62.88;96488.75;4951744;28;20235;-67
2022/03/18 00:56:04;;;;;;;10.20;9.20;;;;;;;2.83;62.94;96492.00;4932214;28;20216;-68
2022/03/18 00:58:30;;;;;;;9.43;8.53;;;;;;;2.89;62.39;96504.75;4933459;28;20204;-68
2022/03/18 01:00:55;;;;;;;9.60;8.80;;;;;;;2.85;62.01;96492.78;4935104;28;20388;-66
2022/03/18 01:03:21;;;;;;;9.37;8.57;;;;;;;2.91;62.15;96507.25;4932143;28;20311;-67
2022/03/18 01:05:46;;;;;;;9.70;8.67;;;;;;;2.92;61.80;96507.19;4931764;28;20239;-67
2022/03/18 01:08:12;;;;;;;8.87;7.97;;;;;;;2.82;62.31;96506.75;4931842;28;20236;-67
2022/03/18 01:10:37;;;;;;;9.80;8.90;;;;;;;2.85;62.24;96516.16;4938780;29;20221;-66
2022/03/18 01:13:03;;;;;;;9.17;8.37;;;;;;;2.80;62.33;96508.56;4948459;28;20232;-67
2022/03/18 01:15:29;;;;;;;9.07;8.20;;;;;;;2.78;62.40;96509.53;4923514;28;20257;-67
2022/03/18 01:17:55;;;;;;;9.97;8.97;;;;;;;2.80;62.49;96510.34;4911736;29;20226;-67
2022/03/18 01:20:21;;;;;;;9.23;8.43;;;;;;;2.77;62.76;96506.13;4914608;29;20233;-67
2022/03/18 01:22:46;;;;;;;8.87;8.07;;;;;;;2.79;62.32;96506.91;4927938;29;20268;-67
2022/03/18 01:25:12;;;;;;;9.17;8.27;;;;;;;2.81;62.03;96509.44;4912473;29;20229;-67
2022/03/18 01:27:37;;;;;;;9.60;8.70;;;;;;;2.67;62.54;96504.00;4915486;29;20255;-67
2022/03/18 01:30:03;;;;;;;8.80;8.00;;;;;;;2.61;62.82;96505.94;4916380;29;20225;-67
2022/03/18 01:32:28;;;;;;;9.30;8.40;;;;;;;2.73;62.86;96504.56;4915764;28;20244;-67
2022/03/18 01:34:54;;;;;;;9.77;8.93;;;;;;;2.70;62.83;96501.25;4915821;29;20225;-67
2022/03/18 01:37:20;;;;;;;9.63;8.73;;;;;;;2.70;62.60;96498.66;4912648;29;20244;-67
2022/03/18 01:39:45;;;;;;;9.40;8.37;;;;;;;2.69;62.84;96505.59;4918666;29;20221;-67
2022/03/18 01:42:11;;;;;;;9.10;8.30;;;;;;;2.71;62.70;96505.56;4913570;29;20327;-67
2022/03/18 01:44:44;;;;;;;9.83;8.93;;;;;;;2.76;62.75;96501.84;4920289;29;20240;-67
2022/03/18 01:47:10;;;;;;;10.67;9.57;;;;;;;2.71;62.60;96503.78;4915662;29;20209;-67
2022/03/18 01:49:37;;;;;;;10.00;9.03;;;;;;;2.67;63.27;96510.03;4906230;29;20225;-67
2022/03/18 01:52:03;;;;;;;9.63;8.70;;;;;;;2.65;63.61;96507.50;4930734;29;20229;-67
2022/03/18 01:54:44;;;;;;;10.40;9.50;;;;;;;2.72;62.69;96509.81;4926621;28;20230;-67
2022/03/18 01:57:10;;;;;;;10.47;9.47;;;;;;;2.58;63.68;96507.84;4925396;29;20234;-67
2022/03/18 01:59:36;;;;;;;10.43;9.43;;;;;;;2.61;64.25;96508.53;4925815;29;20224;-66
2022/03/18 02:02:02;;;;;;;11.47;10.47;;;;;;;2.73;64.91;96519.31;4932507;29;20229;-67
2022/03/18 02:04:28;;;;;;;10.57;9.60;;;;;;;2.66;64.91;96518.72;4931456;29;20217;-68
2022/03/18 02:06:54;;;;;;;11.07;10.07;;;;;;;2.61;65.32;96521.53;4927248;28;20228;-68
2022/03/18 02:09:20;;;;;;;12.10;10.80;;;;;;;2.60;65.07;96522.44;4927598;29;20229;-67
2022/03/18 02:11:46;;;;;;;11.03;9.93;;;;;;;2.62;64.39;96514.59;4928911;29;20257;-67
2022/03/18 02:14:12;;;;;;;11.70;10.60;;;;;;;2.58;65.18;96521.66;4929074;28;20296;-67
2022/03/18 02:16:39;;;;;;;11.37;10.20;;;;;;;2.61;65.17;96520.69;4927461;29;20236;-67
2022/03/18 02:19:06;;;;;;;11.47;10.37;;;;;;;2.67;64.42;96506.59;4927354;29;20333;-67
2022/03/18 02:21:35;;;;;;;11.10;10.00;;;;;;;2.62;63.80;96509.41;4926372;29;20334;-67
2022/03/18 02:24:00;;;;;;;11.73;9.80;;;;;;;2.63;63.54;96511.09;4925013;29;20237;-68
2022/03/18 02:26:26;;;;;;;11.43;10.33;;;;;;;2.48;64.19;96516.94;4957255;28;20241;-67
2022/03/18 02:28:52;;;;;;;11.20;10.17;;;;;;;2.48;64.78;96512.56;4909375;28;20253;-67
2022/03/18 02:31:19;;;;;;;11.73;10.63;;;;;;;2.45;64.67;96511.88;4924085;29;20226;-67
2022/03/18 02:33:44;;;;;;;10.83;9.83;;;;;;;2.46;63.91;96517.00;4925179;29;20240;-67
2022/03/18 02:36:10;;;;;;;12.40;11.20;;;;;;;2.35;63.96;96520.06;4958391;28;20225;-67
2022/03/18 02:38:35;;;;;;;11.57;10.53;;;;;;;2.29;64.43;96528.09;4928808;29;20244;-66
2022/03/18 02:41:00;;;;;;;11.90;10.70;;;;;;;2.32;64.31;96529.72;4928591;28;20201;-67
2022/03/18 02:43:26;;;;;;;12.30;11.13;;;;;;;2.32;64.02;96532.31;4928049;29;20201;-67
2022/03/18 02:45:52;;;;;;;12.30;11.30;;;;;;;2.34;64.15;96536.53;4927945;29;20341;-68
2022/03/18 02:48:17;;;;;;;12.77;11.57;;;;;;;2.19;64.83;96537.16;4927183;29;20309;-68
2022/03/18 02:50:43;;;;;;;13.97;12.67;;;;;;;2.20;64.35;96533.69;4925309;28;20276;-67
2022/03/18 02:53:08;;;;;;;14.07;12.77;;;;;;;2.14;64.62;96531.34;4926576;28;20228;-69
2022/03/18 02:55:34;;;;;;;12.93;11.73;;;;;;;2.13;64.55;96537.41;4943136;29;20233;-68
2022/03/18 02:57:59;;;;;;;13.97;12.70;;;;;;;2.12;64.45;96556.50;4923327;28;20245;-67
2022/03/18 03:00:25;;;;;;;14.77;13.47;;;;;;;2.21;63.59;96551.75;4926382;28;20249;-67
2022/03/18 03:02:51;;;;;;;13.20;12.00;;;;;;;2.14;63.68;96552.09;4924846;29;20222;-68
2022/03/18 03:08:01;;;;;;;14.47;13.23;;;;;;;2.11;63.71;96565.19;4926817;28;20215;-67
2022/03/18 03:10:32;;;;;;;14.43;13.13;;;;;;;2.04;63.83;96569.78;4926513;29;20213;-67
2022/03/18 03:12:59;;;;;;;15.07;13.77;;;;;;;2.01;63.76;96567.31;4927215;28;20233;-68
2022/03/18 03:15:25;;;;;;;15.70;14.30;;;;;;;1.96;63.48;96567.50;4934068;29;20240;-67
2022/03/18 03:17:51;;;;;;;15.87;14.37;;;;;;;1.84;63.87;96567.13;4923267;29;20316;-68
2022/03/18 03:20:16;;;;;;;16.00;14.57;;;;;;;1.94;63.95;96566.69;4924260;29;20316;-68
2022/03/18 03:22:42;;;;;;;15.37;14.07;;;;;;;2.02;63.42;96569.00;4923182;29;20269;-67
2022/03/18 03:25:07;;;;;;;15.93;14.43;;;;;;;2.08;63.07;96566.13;4929004;29;20275;-68
2022/03/18 03:27:33;;;;;;;15.90;14.30;;;;;;;2.09;63.31;96564.41;4928467;29;20248;-68
2022/03/18 03:30:03;;;;;;;14.83;13.43;;;;;;;1.99;62.81;96579.50;4932731;29;20267;-68
2022/03/18 03:32:29;;;;;;;15.50;14.07;;;;;;;1.90;62.92;96579.88;4917682;29;20233;-68
2022/03/18 03:34:57;;;;;;;15.67;14.17;;;;;;;1.88;63.07;96587.72;4924077;28;20284;-67
2022/03/18 03:37:23;;;;;;;15.20;13.90;;;;;;;1.87;63.11;96598.13;4925835;29;20209;-68
2022/03/18 03:39:50;;;;;;;15.37;13.77;;;;;;;1.92;62.64;96589.25;4928734;29;20240;-67
2022/03/18 03:42:16;;;;;;;15.47;13.87;;;;;;;1.95;62.30;96581.38;4922740;29;20229;-68
2022/03/18 03:44:41;;;;;;;14.60;13.20;;;;;;;1.90;61.94;96590.25;4928378;29;20280;-67
2022/03/18 03:47:07;;;;;;;13.87;12.57;;;;;;;1.83;61.87;96596.56;4929189;28;20271;-68
2022/03/18 03:49:33;;;;;;;13.47;12.07;;;;;;;1.93;61.70;96593.56;4925261;29;20232;-68
2022/03/18 03:51:58;;;;;;;13.20;11.90;;;;;;;1.87;61.48;96606.78;4924201;29;21019;-67
2022/03/18 03:54:23;;;;;;;13.23;12.03;;;;;;;1.76;61.82;96607.19;4924084;28;20260;-68
2022/03/18 03:56:49;;;;;;;13.47;12.13;;;;;;;1.88;61.83;96599.84;4924422;29;20232;-68
2022/03/18 03:59:14;;;;;;;13.57;11.80;;;;;;;1.90;61.65;96603.22;4929978;29;20225;-68
2022/03/18 04:01:40;;;;;;;13.07;11.67;;;;;;;1.98;61.08;96607.19;4928627;29;20205;-67
2022/03/18 04:04:05;;;;;;;13.20;11.90;;;;;;;2.03;60.83;96612.19;4930259;29;20225;-68
2022/03/18 04:06:31;;;;;;;12.57;11.27;;;;;;;1.92;60.79;96617.78;4929670;29;20237;-68
2022/03/18 04:08:57;;;;;;;11.73;10.63;;;;;;;1.99;60.56;96613.22;4924891;29;20285;-67
2022/03/18 04:11:22;;;;;;;11.70;10.70;;;;;;;1.89;61.00;96617.91;4925006;28;20245;-68
2022/03/18 04:13:48;;;;;;;12.97;11.67;;;;;;;1.87;61.35;96624.06;4925296;29;20209;-68
2022/03/18 04:16:15;;;;;;;13.13;11.83;;;;;;;1.88;61.26;96628.38;4922625;29;20312;-68
2022/03/18 04:18:41;;;;;;;13.93;12.53;;;;;;;1.89;61.49;96627.44;4923619;29;20300;-67
2022/03/18 04:21:06;;;;;;;14.47;13.03;;;;;;;1.92;61.64;96632.53;4928847;29;20233;-67
2022/03/18 04:23:32;;;;;;;12.93;11.73;;;;;;;1.89;61.15;96628.28;4943961;28;20225;-67
2022/03/18 04:25:57;;;;;;;12.93;11.63;;;;;;;1.87;61.58;96637.03;4943239;28;20214;-67
2022/03/18 04:28:22;;;;;;;13.30;11.90;;;;;;;1.87;61.33;96637.91;4930614;29;20209;-67
2022/03/18 04:30:48;;;;;;;12.63;11.40;;;;;;;1.90;61.02;96649.91;4930453;28;20256;-67
2022/03/18 04:33:13;;;;;;;12.63;11.03;;;;;;;1.85;60.84;96644.06;4929079;29;20232;-67
2022/03/18 04:35:39;;;;;;;12.67;10.93;;;;;;;1.87;60.60;96635.31;4946578;28;20229;-66
2022/03/18 04:38:04;;;;;;;14.97;10.87;;;;;;;1.81;60.68;96632.09;4926703;28;20201;-66
2022/03/18 04:40:31;;;;;;;12.10;10.73;;;;;;;1.90;60.15;96640.38;4929094;29;20217;-67
2022/03/18 04:42:57;;;;;;;10.93;9.93;;;;;;;1.88;59.93;96642.19;4930838;28;20255;-66
2022/03/18 04:45:23;;;;;;;11.50;10.30;;;;;;;1.98;60.06;96645.28;4930227;28;20231;-66
2022/03/18 04:47:48;;;;;;;10.77;9.70;;;;;;;1.99;59.77;96639.16;4931036;29;20224;-66
2022/03/18 04:50:14;;;;;;;10.23;9.23;;;;;;;1.93;60.00;96645.44;4931815;28;20276;-66
2022/03/18 04:52:39;;;;;;;11.10;9.57;;;;;;;1.98;59.77;96653.91;4931843;29;20205;-66
2022/03/18 04:55:06;;;;;;;10.47;9.47;;;;;;;1.89;59.79;96653.38;4935770;28;20241;-67
2022/03/18 04:57:31;;;;;;;9.57;8.50;;;;;;;1.78;59.34;96656.41;4941187;29;20307;-67
2022/03/18 04:59:57;;;;;;;9.17;8.20;;;;;;;1.84;58.76;96657.91;4930151;28;20304;-66
2022/03/18 05:02:28;;;;;;;10.17;9.27;;;;;;;1.87;58.41;96661.25;4930671;29;20221;-67
2022/03/18 05:04:54;;;;;;;10.63;9.30;;;;;;;1.91;59.04;96664.56;4934284;28;20209;-67
2022/03/18 05:07:19;;;;;;;9.83;8.80;;;;;;;1.82;59.08;96663.16;4964936;28;20205;-67
2022/03/18 05:09:46;;;;;;;9.80;8.80;;;;;;;1.90;58.99;96670.66;4934135;28;20303;-67
2022/03/18 05:12:14;;;;;;;10.57;9.07;;;;;;;1.76;59.11;96669.44;4936039;29;20225;-67
2022/03/18 05:14:40;;;;;;;9.73;8.73;;;;;;;1.78;59.26;96674.56;4939812;29;20225;-67
2022/03/18 05:17:08;;;;;;;8.90;7.87;;;;;;;1.85;58.45;96672.59;4932538;28;20221;-66
2022/03/18 05:19:34;;;;;;;9.50;7.90;;;;;;;1.67;58.89;96674.13;4930539;29;20216;-67
2022/03/18 05:22:00;;;;;;;8.87;8.00;;;;;;;1.81;58.52;96676.19;4931520;29;20295;-66
2022/03/18 05:24:26;;;;;;;8.53;7.73;;;;;;;1.75;58.75;96670.31;4927882;29;20233;-67
2022/03/18 05:26:53;;;;;;;8.57;7.67;;;;;;;1.63;58.39;96670.81;4928353;28;20236;-67
2022/03/18 05:29:18;;;;;;;7.37;6.67;;;;;;;1.53;58.22;96661.66;4933336;28;20240;-67
2022/03/18 05:31:45;;;;;;;8.03;7.23;;;;;;;1.69;58.00;96667.13;4936300;28;20216;-67
2022/03/18 05:34:11;;;;;;;8.00;7.30;;;;;;;1.58;57.68;96679.63;4931970;29;20275;-66
2022/03/18 05:36:37;;;;;;;8.67;7.83;;;;;;;1.57;58.25;96675.34;4924913;28;20235;-65
2022/03/18 05:39:02;;;;;;;7.77;6.80;;;;;;;1.54;57.84;96676.31;4927960;29;20225;-65
2022/03/18 05:41:28;;;;;;;7.57;6.73;;;;;;;1.62;57.81;96669.09;4924235;28;20349;-66
2022/03/18 05:43:53;;;;;;;7.27;6.33;;;;;;;1.50;58.09;96672.16;4927465;28;20331;-65
2022/03/18 05:46:19;;;;;;;7.60;6.83;;;;;;;1.63;57.36;96673.38;4932659;29;20217;-67
2022/03/18 05:48:44;;;;;;;8.37;7.00;;;;;;;1.74;56.58;96680.78;4935948;29;20271;-65
2022/03/18 05:51:10;;;;;;;6.83;6.20;;;;;;;1.48;57.26;96690.34;4926102;29;20252;-66
2022/03/18 05:53:35;;;;;;;7.87;7.07;;;;;;;1.42;57.29;96687.97;4924738;28;20300;-66
2022/03/18 05:58:56;;;;;;;6.87;6.27;;;;;;;1.75;55.97;96698.00;4852106;29;20247;-66
2022/03/18 06:01:21;;;;;;;6.67;5.80;;;;;;;1.71;55.98;96692.09;4851641;29;20216;-66
2022/03/18 06:03:48;;;;;;;6.90;6.23;;;;;;;1.70;56.01;96695.56;4854473;29;20264;-67
2022/03/18 06:06:14;;;;;;;7.10;6.03;;;;;;;1.72;55.44;96698.97;4857654;29;20231;-69
2022/03/18 06:14:07;;;;;;;7.53;6.83;;;;;;;2.08;55.06;96711.44;4873634;29;20221;-65
2022/03/18 06:16:33;;;;;;;9.87;7.00;;;;;;;2.14;54.83;96724.22;4874820;29;20334;-68
2022/03/18 06:18:58;;;;;;;6.73;6.00;;;;;;;2.04;54.85;96729.81;4894214;29;20237;-70
2022/03/18 06:21:24;;;;;;;9.03;6.70;;;;;;;2.34;54.02;96732.97;4894838;29;20239;-68
2022/03/18 06:23:49;;;;;;;7.07;6.43;;;;;;;2.28;53.92;96731.47;4879133;29;20230;-69
2022/03/18 06:26:15;;;;;;;9.70;7.20;;;;;;;2.55;53.16;96736.47;4896099;29;20269;-68
2022/03/18 06:28:41;;;;;;;7.67;6.27;;;;;;;2.57;52.19;96738.13;4910035;29;20306;-68
2022/03/18 06:31:06;;;;;;;8.23;6.43;;;;;;;2.50;52.68;96744.44;4893795;29;20238;-69
2022/03/18 06:33:33;;;;;;;6.83;6.23;;;;;;;2.60;52.53;96750.13;4895950;29;20234;-70
2022/03/18 06:35:59;;;;;;;7.07;6.37;;;;;;;2.46;51.82;96749.81;4917716;28;20225;-69
2022/03/18 06:38:24;;;;;;;8.23;6.07;;;;;;;2.56;50.75;96751.97;4929747;28;20236;-71
2022/03/18 06:40:50;;;;;;;7.27;5.73;;;;;;;2.50;50.79;96760.03;4932598;29;20208;-70
2022/03/18 06:43:15;;;;;;;7.47;6.33;;;;;;;2.53;51.30;96761.66;4952081;28;20235;-69
2022/03/18 06:45:41;;;;;;;11.93;6.60;;;;;;;2.61;51.37;96762.19;4930250;29;20302;-61
2022/03/18 06:48:07;;;;;;;11.87;7.97;;;;;;;2.63;51.89;96769.03;4942354;28;20224;-61
2022/03/18 06:50:32;;;;;;;10.10;7.73;;;;;;;2.70;51.63;96763.59;4962473;28;20584;-62
2022/03/18 06:52:58;;;;;;;10.67;8.17;;;;;;;2.88;51.11;96768.03;4927557;28;20228;-62
2022/03/18 06:55:23;;;;;;;12.30;7.87;;;;;;;2.83;52.16;96769.97;4931608;29;20363;-66
2022/03/18 06:57:49;;;;;;;13.67;7.83;;;;;;;3.11;51.24;96766.28;4933629;28;20240;-65
2022/03/18 07:00:14;;;;;;;10.50;7.13;;;;;;;3.34;49.03;96773.94;4934502;28;20256;-64
2022/03/18 07:02:40;;;;;;;9.67;6.73;;;;;;;3.26;49.29;96770.81;4932856;29;20247;-67
2022/03/18 07:05:06;;;;;;;14.27;8.33;;;;;;;3.23;50.24;96781.34;4930185;28;20244;-65
2022/03/18 07:07:31;;;;;;;8.50;7.67;;;;;;;3.15;50.38;96786.03;4931332;28;20212;-65
2022/03/18 07:09:57;;;;;;;9.87;7.60;;;;;;;3.26;50.78;96791.63;4935122;28;20260;-66
2022/03/18 07:12:22;;;;;;;13.43;8.00;;;;;;;3.30;50.57;96785.41;4948699;28;20228;-66
2022/03/18 07:14:48;;;;;;;11.63;7.33;;;;;;;3.30;50.01;96788.84;4929296;28;20233;-67
2022/03/18 07:19:57;;;;;;;7.67;6.77;;;;;;;3.61;47.99;96784.97;4945250;28;20252;-66
2022/03/18 07:22:25;;;;;;;9.00;6.03;;;;;;;3.64;46.25;96783.97;4943344;28;20292;-65
2022/03/18 07:24:51;;;;;;;8.67;5.93;;;;;;;3.75;45.26;96779.16;4929739;28;20224;-66
2022/03/18 07:27:16;;;;;;;6.97;5.27;;;;;;;3.60;45.01;96785.84;4944014;28;20244;-66
2022/03/18 07:29:42;;;;;;;8.43;6.10;;;;;;;3.49;45.39;96786.31;4933135;28;20224;-66
2022/03/18 07:32:08;;;;;;;9.43;6.53;;;;;;;3.51;45.21;96800.09;4933114;28;20208;-65
2022/03/18 07:34:34;;;;;;;7.23;6.10;;;;;;;3.48;44.94;96802.00;4935434;29;20216;-66
2022/03/18 07:36:59;;;;;;;9.37;6.47;;;;;;;3.57;44.48;96785.13;4934471;28;20223;-67
2022/03/18 07:39:25;;;;;;;9.87;6.60;;;;;;;3.45;44.03;96802.97;4934279;28;20383;-66
2022/03/18 07:41:50;;;;;;;7.57;5.67;;;;;;;3.34;43.49;96810.34;4933617;28;20225;-65
2022/03/18 07:44:16;;;;;;;5.83;5.00;;;;;;;3.31;44.07;96807.88;4935094;29;20225;-64
2022/03/18 07:46:41;;;;;;;5.43;4.93;;;;;;;3.36;44.00;96813.72;4935376;29;20223;-68
2022/03/18 07:49:06;;;;;;;8.17;5.37;;;;;;;3.39;43.69;96808.41;4927727;28;20221;-67
2022/03/18 07:51:32;;;;;;;8.80;5.53;;;;;;;3.51;43.56;96809.66;4934128;28;20232;-68
2022/03/18 07:53:57;;;;;;;5.63;5.07;;;;;;;3.34;43.16;96807.75;4960256;28;20235;-69
2022/03/18 07:56:23;;;;;;;5.83;4.77;;;;;;;3.26;43.31;96808.09;4962108;28;20217;-64
2022/03/18 07:58:49;;;;;;;6.90;5.27;;;;;;;3.48;42.44;96808.03;4944429;28;20213;-64
2022/03/18 08:01:15;;;;;;;9.07;5.27;;;;;;;3.41;42.68;96809.19;4931396;28;20231;-64
2022/03/18 08:03:41;;;;;;;5.90;4.60;;;;;;;3.56;42.52;96810.31;4934263;28;20235;-59
2022/03/18 08:06:06;;;;;;;6.20;5.60;;;;;;;3.64;42.24;96818.63;4966202;28;20224;-62
2022/03/18 08:08:32;;;;;;;7.17;5.40;;;;;;;3.46;42.93;96820.25;4949743;28;20221;-71
2022/03/18 08:10:57;;;;;;;7.03;5.63;;;;;;;3.51;43.11;96817.47;4950608;28;20578;-63
2022/03/18 08:13:23;;;;;;;6.80;5.37;;;;;;;3.12;43.33;96820.78;4932650;29;20248;-64
2022/03/18 08:15:49;;;;;;;9.67;6.67;;;;;;;3.56;43.76;96818.13;4951749;28;20233;-64
2022/03/18 08:18:15;;;;;;;6.57;5.87;;;;;;;3.72;43.01;96815.72;4939642;28;20312;-63
2022/03/18 08:20:41;;;;;;;6.17;5.57;;;;;;;3.67;42.19;96804.66;4935870;28;20244;-65
2022/03/18 08:23:14;;;;;;;8.23;5.37;;;;;;;3.79;41.30;96814.50;4937386;28;20212;-67
2022/03/18 08:25:40;;;;;;;7.00;4.80;;;;;;;3.84;40.44;96809.97;4941108;28;20216;-64
2022/03/18 08:28:07;;;;;;;5.73;4.47;;;;;;;3.88;40.05;96816.75;4938226;28;20324;-64
2022/03/18 08:30:33;;;;;;;8.50;5.77;;;;;;;3.79;39.59;96813.69;4939541;29;20237;-61
2022/03/18 08:32:59;;;;;;;9.10;6.20;;;;;;;3.97;40.07;96816.31;4934212;29;20228;-61
2022/03/18 08:35:25;;;;;;;7.27;5.40;;;;;;;3.95;38.35;96810.34;4949510;28;20371;-57
2022/03/18 08:37:57;;;;;;;9.00;5.93;;;;;;;4.07;38.72;96810.72;4946644;28;20498;-60
2022/03/18 08:40:33;;;;;;;7.43;5.23;;;;;;;4.18;39.41;96811.09;4939860;28;20204;-61
2022/03/18 08:43:00;;;;;;;8.63;5.00;;;;;;;4.17;39.77;96819.78;4939689;28;20294;-63
2022/03/18 08:45:27;;;;;;;6.50;5.23;;;;;;;4.20;39.11;96809.25;4937222;29;20239;-59
2022/03/18 08:47:56;;;;;;;7.50;5.27;;;;;;;4.23;38.50;96816.09;4920213;29;20213;-60
2022/03/18 08:50:22;;;;;;;6.13;5.27;;;;;;;4.39;38.22;96817.09;4933077;28;20236;-59
2022/03/18 08:52:49;;;;;;;5.70;5.10;;;;;;;4.49;35.27;96812.28;4941479;28;20216;-62
2022/03/18 08:55:16;;;;;;;6.23;5.00;;;;;;;4.92;34.37;96810.28;4959072;28;20217;-63
2022/03/18 08:57:41;;;;;;;9.80;5.93;;;;;;;4.81;34.69;96809.06;4950382;28;20229;-61
2022/03/18 09:00:11;;;;;;;8.27;5.13;;;;;;;4.74;34.74;96810.25;4955658;28;20224;-61
2022/03/18 09:02:38;;;;;;;9.23;5.80;;;;;;;4.83;35.40;96801.13;4955711;28;20224;-60
2022/03/18 09:05:05;;;;;;;6.00;5.30;;;;;;;4.97;35.56;96800.47;4949311;28;20216;-60
2022/03/18 09:07:31;;;;;;;6.87;5.50;;;;;;;4.75;35.58;96791.06;4948002;28;20193;-60
2022/03/18 09:09:57;;;;;;;10.77;5.57;;;;;;;5.03;36.01;96800.19;4932181;28;20242;-60
2022/03/18 09:12:23;;;;;;;7.10;5.13;;;;;;;5.17;33.52;96800.38;4949095;28;20316;-61
2022/03/18 09:14:49;;;;;;;6.27;5.37;;;;;;;4.91;34.66;96795.56;4936999;28;20239;-60
2022/03/18 09:17:14;;;;;;;6.93;5.47;;;;;;;5.03;35.12;96797.59;4937569;28;20285;-59
2022/03/18 09:19:40;;;;;;;5.03;4.53;;;;;;;5.43;33.64;96800.84;4938385;28;20240;-61
2022/03/18 09:22:07;;;;;;;6.00;4.97;;;;;;;5.37;34.60;96790.69;4933852;28;20220;-61
2022/03/18 09:24:34;;;;;;;6.47;5.03;;;;;;;5.49;35.54;96790.94;4945385;28;20220;-61
2022/03/18 09:26:59;;;;;;;8.13;5.83;;;;;;;5.90;33.11;96800.19;4933634;29;20271;-61
2022/03/18 09:29:26;;;;;;;5.87;5.27;;;;;;;6.04;32.00;96794.28;4930390;28;20252;-60
2022/03/18 09:31:52;;;;;;;7.67;5.93;;;;;;;6.05;32.62;96796.81;4934743;28;20220;-61
2022/03/18 09:34:18;;;;;;;6.43;4.80;;;;;;;6.19;33.01;96803.94;4939855;28;20208;-61
2022/03/18 09:36:44;;;;;;;5.80;4.90;;;;;;;6.45;31.94;96802.53;4949490;28;20228;-61
2022/03/18 09:39:09;;;;;;;8.70;5.80;;;;;;;6.34;31.95;96797.06;4932156;28;20228;-60
2022/03/18 09:41:35;;;;;;;8.53;5.73;;;;;;;6.40;32.63;96797.56;4968264;28;20283;-61
2022/03/18 09:44:00;;;;;;;10.93;5.70;;;;;;;6.33;31.35;96788.34;4949971;28;20284;-61
2022/03/18 09:46:27;;;;;;;9.13;5.50;;;;;;;6.41;32.11;96785.31;4933474;28;20247;-61
2022/03/18 09:48:53;;;;;;;11.97;6.33;;;;;;;6.66;32.13;96787.47;4944528;28;20209;-60
2022/03/18 09:51:18;;;;;;;7.97;5.77;;;;;;;7.11;32.08;96774.50;4952844;28;20260;-60
2022/03/18 09:53:44;;;;;;;6.37;5.63;;;;;;;7.31;31.54;96783.84;4965965;28;20558;-61
2022/03/18 09:56:11;;;;;;;8.97;5.97;;;;;;;7.25;30.99;96788.50;4933714;28;20228;-61
2022/03/18 09:58:37;;;;;;;6.97;5.60;;;;;;;7.34;29.77;96787.13;4965858;28;20244;-64
2022/03/18 10:01:04;;;;;;;7.00;5.77;;;;;;;7.27;30.34;96791.88;4961309;28;20212;-61
2022/03/18 10:03:42;;;;;;;6.20;5.57;;;;;;;7.30;30.67;96783.00;4928377;29;20244;-61
2022/03/18 10:06:11;;;;;;;6.60;5.53;;;;;;;7.50;29.93;96787.91;4929794;29;20221;-61
2022/03/18 10:08:39;;;;;;;7.37;6.03;;;;;;;7.48;29.34;96786.31;4935042;28;20233;-61
2022/03/18 10:11:22;;;;;;;11.57;5.73;;;;;;;7.49;30.11;96782.78;4932766;28;20220;-59
2022/03/18 10:14:02;;;;;;;9.40;6.67;;;;;;;7.90;29.67;96789.94;4951017;28;20200;-59
2022/03/18 10:16:34;;;;;;;8.40;5.80;;;;;;;8.42;27.67;96783.34;4945549;28;20213;-59
2022/03/18 10:19:05;;;;;;;7.43;6.17;;;;;;;8.48;27.81;96780.34;4941737;28;20324;-59
2022/03/18 10:21:31;;;;;;;6.30;5.70;;;;;;;8.44;28.56;96779.69;4929423;28;20307;-59
2022/03/18 10:24:08;;;;;;;7.03;6.23;;;;;;;8.20;28.80;96784.63;4931918;28;20231;-59
2022/03/18 10:26:38;;;;;;;6.47;5.63;;;;;;;7.79;29.24;96779.28;4926442;29;20242;-60
2022/03/18 10:29:04;;;;;;;7.00;5.57;;;;;;;7.58;28.72;96776.16;4930696;29;20201;-59
2022/03/18 10:31:30;;;;;;;7.83;5.77;;;;;;;7.33;29.45;96785.44;4926368;29;20229;-60
2022/03/18 10:37:07;;;;;;;10.30;6.40;;;;;;;7.79;29.93;96787.97;4878981;29;20251;-61
2022/03/18 10:39:35;;;;;;;9.27;6.10;;;;;;;7.89;29.51;96791.75;4872241;29;20222;-62
2022/03/18 10:42:03;;;;;;;9.20;6.30;;;;;;;7.80;29.34;96783.56;4869850;29;20306;-62
2022/03/18 10:44:41;;;;;;;6.07;5.50;;;;;;;7.70;29.44;96783.28;4890265;29;20256;-60
2022/03/18 10:47:06;;;;;;;6.63;6.00;;;;;;;7.73;29.90;96778.72;4895763;29;20214;-60
2022/03/18 10:49:32;;;;;;;5.93;5.33;;;;;;;7.58;28.18;96784.84;4875673;29;20207;-61
2022/03/18 10:52:09;;;;;;;7.80;6.43;;;;;;;7.38;28.45;96780.78;4875767;29;20349;-62
2022/03/18 10:54:34;;;;;;;9.13;6.03;;;;;;;7.34;27.86;96781.03;4888508;29;20234;-62
2022/03/18 10:57:00;;;;;;;7.80;5.77;;;;;;;7.65;28.34;96774.88;4891885;29;20265;-61
2022/03/18 10:59:27;;;;;;;9.30;5.97;;;;;;;8.29;27.44;96770.97;4876957;29;20254;-59
2022/03/18 11:01:56;;;;;;;5.80;5.10;;;;;;;8.38;26.50;96767.78;4890554;29;20222;-60
2022/03/18 11:04:23;;;;;;;5.77;5.17;;;;;;;8.25;27.31;96766.84;4909394;29;20242;-61
2022/03/18 11:12:24;;;;;;;8.60;5.80;;;;;;;9.15;26.01;96757.69;4906153;29;20244;-62
2022/03/18 11:14:54;;;;;;;9.30;5.50;;;;;;;9.18;26.19;96764.50;4896890;29;20232;-63
2022/03/18 11:17:21;;;;;;;7.27;5.40;;;;;;;8.91;25.25;96764.53;4921592;29;20224;-60
2022/03/18 11:19:47;;;;;;;9.23;4.90;;;;;;;9.10;25.67;96758.94;4905529;29;20334;-61
2022/03/18 11:22:16;;;;;;;6.43;5.30;;;;;;;9.56;24.36;96758.50;4904944;29;20240;-59
2022/03/18 11:24:45;;;;;;;6.90;5.13;;;;;;;9.60;23.96;96755.59;4936430;28;20232;-62
2022/03/18 11:27:12;;;;;;;7.63;5.33;;;;;;;9.56;23.63;96761.97;4912651;28;20249;-63
2022/03/18 11:29:38;;;;;;;11.93;6.00;;;;;;;9.27;23.71;96758.66;4916836;29;20226;-61
2022/03/18 11:32:09;;;;;;;6.93;5.27;;;;;;;9.28;24.37;96755.94;4906840;28;20205;-61
2022/03/18 11:34:44;;;;;;;9.67;5.40;;;;;;;9.33;24.69;96750.38;4917319;28;20212;-62
2022/03/18 11:37:09;;;;;;;7.97;5.07;;;;;;;10.18;23.76;96753.38;4935234;28;20245;-61
2022/03/18 11:39:35;;;;;;;6.50;5.13;;;;;;;10.38;24.22;96747.59;4936215;28;20237;-62
2022/03/18 11:42:12;;;;;;;5.87;5.00;;;;;;;10.66;22.20;96760.56;4912735;29;20275;-61
2022/03/18 11:44:39;;;;;;;7.47;5.78;;;;;;;10.74;22.34;96753.81;4914563;29;20321;-63
2022/03/18 11:47:22;;;;;;;5.63;4.83;;;;;;;10.93;22.24;96747.22;4920102;29;20302;-60
2022/03/18 11:49:48;;;;;;;6.77;5.20;;;;;;;11.18;22.43;96746.28;4923494;29;20211;-60
2022/03/18 11:52:13;;;;;;;6.13;4.70;;;;;;;10.88;21.79;96730.91;4941998;28;20216;-62
2022/03/18 11:54:53;;;;;;;8.60;5.07;;;;;;;10.86;22.33;96738.94;4928251;28;20232;-60
2022/03/18 11:57:33;;;;;;;6.73;5.07;;;;;;;11.58;22.55;96728.34;4925344;29;20224;-60
2022/03/18 12:00:07;;;;;;;7.43;5.10;;;;;;;10.41;22.75;96735.19;4920183;29;20240;-60
2022/03/18 12:02:34;;;;;;;7.97;5.60;;;;;;;10.52;22.65;96740.50;4933768;28;20223;-59